sensor_id;sensor_type;location;lat;lon;timestamp;P1;durP1;ratioP1;P2;durP2;ratioP2
12385;SDS011;6257;57.634;18.310;2022-09-12T00:01:15;2.77;;;2.00;;
12385;SDS011;6257;57.634;18.310;2022-09-12T00:03:44;2.87;;;2.07;;
12385;SDS011;6257;57.634;18.310;2022-09-12T00:06:13;3.50;;;2.07;;
12385;SDS011;6257;57.634;18.310;2022-09-12T00:08:43;3.70;;;1.90;;
12385;SDS011;6257;57.634;18.310;2022-09-12T00:11:12;2.70;;;2.00;;
12385;SDS011;6257;57.634;18.310;2022-09-12T00:13:39;3.73;;;2.23;;
12385;SDS011;6257;57.634;18.310;2022-09-12T00:16:12;2.40;;;1.90;;
12385;SDS011;6257;57.634;18.310;2022-09-12T00:18:41;3.47;;;2.00;;
12385;SDS011;6257;57.634;18.310;2022-09-12T00:21:10;2.90;;;2.10;;
12385;SDS011;6257;57.634;18.310;2022-09-12T00:23:38;2.90;;;1.87;;
12385;SDS011;6257;57.634;18.310;2022-09-12T00:26:05;2.40;;;1.90;;
12385;SDS011;6257;57.634;18.310;2022-09-12T00:28:34;2.63;;;1.87;;
12385;SDS011;6257;57.634;18.310;2022-09-12T00:31:03;2.27;;;2.07;;
12385;SDS011;6257;57.634;18.310;2022-09-12T00:33:31;3.20;;;1.80;;
12385;SDS011;6257;57.634;18.310;2022-09-12T00:35:58;3.10;;;1.93;;
12385;SDS011;6257;57.634;18.310;2022-09-12T00:38:25;2.80;;;2.17;;
12385;SDS011;6257;57.634;18.310;2022-09-12T00:40:52;3.73;;;2.40;;
12385;SDS011;6257;57.634;18.310;2022-09-12T00:46:07;4.33;;;1.97;;
12385;SDS011;6257;57.634;18.310;2022-09-12T00:48:43;3.13;;;2.53;;
12385;SDS011;6257;57.634;18.310;2022-09-12T00:51:14;3.00;;;2.43;;
12385;SDS011;6257;57.634;18.310;2022-09-12T00:53:42;2.47;;;2.20;;
12385;SDS011;6257;57.634;18.310;2022-09-12T00:56:11;3.37;;;2.40;;
12385;SDS011;6257;57.634;18.310;2022-09-12T00:58:45;2.33;;;2.00;;
12385;SDS011;6257;57.634;18.310;2022-09-12T01:01:16;2.13;;;1.93;;
12385;SDS011;6257;57.634;18.310;2022-09-12T01:03:44;2.40;;;2.20;;
12385;SDS011;6257;57.634;18.310;2022-09-12T01:06:13;2.07;;;1.80;;
12385;SDS011;6257;57.634;18.310;2022-09-12T01:08:44;3.70;;;2.07;;
12385;SDS011;6257;57.634;18.310;2022-09-12T01:11:13;2.30;;;1.97;;
12385;SDS011;6257;57.634;18.310;2022-09-12T01:13:43;4.00;;;2.20;;
12385;SDS011;6257;57.634;18.310;2022-09-12T01:16:11;3.63;;;2.20;;
12385;SDS011;6257;57.634;18.310;2022-09-12T01:18:42;2.90;;;2.00;;
12385;SDS011;6257;57.634;18.310;2022-09-12T01:21:19;5.80;;;1.80;;
12385;SDS011;6257;57.634;18.310;2022-09-12T01:27:11;2.93;;;2.00;;
12385;SDS011;6257;57.634;18.310;2022-09-12T01:32:44;2.70;;;1.90;;
12385;SDS011;6257;57.634;18.310;2022-09-12T01:35:22;2.90;;;1.97;;
12385;SDS011;6257;57.634;18.310;2022-09-12T01:37:58;3.73;;;2.37;;
12385;SDS011;6257;57.634;18.310;2022-09-12T01:40:38;2.03;;;1.80;;
12385;SDS011;6257;57.634;18.310;2022-09-12T01:43:12;3.60;;;2.10;;
12385;SDS011;6257;57.634;18.310;2022-09-12T01:45:47;2.97;;;2.30;;
12385;SDS011;6257;57.634;18.310;2022-09-12T01:48:20;2.73;;;2.13;;
12385;SDS011;6257;57.634;18.310;2022-09-12T01:50:52;5.37;;;2.30;;
12385;SDS011;6257;57.634;18.310;2022-09-12T01:53:25;2.57;;;2.00;;
12385;SDS011;6257;57.634;18.310;2022-09-12T01:55:55;3.10;;;1.90;;
12385;SDS011;6257;57.634;18.310;2022-09-12T01:58:26;3.10;;;2.17;;
12385;SDS011;6257;57.634;18.310;2022-09-12T02:01:01;2.57;;;2.00;;
12385;SDS011;6257;57.634;18.310;2022-09-12T02:03:32;3.30;;;2.27;;
12385;SDS011;6257;57.634;18.310;2022-09-12T02:06:05;3.17;;;2.23;;
12385;SDS011;6257;57.634;18.310;2022-09-12T02:08:38;2.93;;;2.10;;
12385;SDS011;6257;57.634;18.310;2022-09-12T02:11:10;2.50;;;2.10;;
12385;SDS011;6257;57.634;18.310;2022-09-12T02:13:39;2.73;;;2.50;;
12385;SDS011;6257;57.634;18.310;2022-09-12T02:16:10;2.20;;;2.00;;
12385;SDS011;6257;57.634;18.310;2022-09-12T02:18:43;2.23;;;2.00;;
12385;SDS011;6257;57.634;18.310;2022-09-12T02:21:13;6.50;;;2.20;;
12385;SDS011;6257;57.634;18.310;2022-09-12T02:23:43;4.07;;;2.27;;
12385;SDS011;6257;57.634;18.310;2022-09-12T02:26:17;3.47;;;2.00;;
12385;SDS011;6257;57.634;18.310;2022-09-12T02:28:46;3.97;;;2.20;;
12385;SDS011;6257;57.634;18.310;2022-09-12T02:31:16;2.40;;;2.03;;
12385;SDS011;6257;57.634;18.310;2022-09-12T02:33:51;6.43;;;2.47;;
12385;SDS011;6257;57.634;18.310;2022-09-12T02:36:31;5.33;;;2.80;;
12385;SDS011;6257;57.634;18.310;2022-09-12T02:39:04;3.67;;;2.30;;
12385;SDS011;6257;57.634;18.310;2022-09-12T02:41:32;2.57;;;2.10;;
12385;SDS011;6257;57.634;18.310;2022-09-12T02:43:59;2.93;;;2.10;;
12385;SDS011;6257;57.634;18.310;2022-09-12T02:46:28;2.57;;;2.10;;
12385;SDS011;6257;57.634;18.310;2022-09-12T02:49:00;2.80;;;2.30;;
12385;SDS011;6257;57.634;18.310;2022-09-12T02:51:27;2.87;;;2.10;;
12385;SDS011;6257;57.634;18.310;2022-09-12T02:53:55;2.13;;;1.93;;
12385;SDS011;6257;57.634;18.310;2022-09-12T02:56:23;3.33;;;2.50;;
12385;SDS011;6257;57.634;18.310;2022-09-12T02:58:53;2.37;;;2.00;;
12385;SDS011;6257;57.634;18.310;2022-09-12T03:01:28;2.33;;;1.90;;
12385;SDS011;6257;57.634;18.310;2022-09-12T03:07:05;2.63;;;2.33;;
12385;SDS011;6257;57.634;18.310;2022-09-12T03:09:39;3.27;;;2.20;;
12385;SDS011;6257;57.634;18.310;2022-09-12T03:12:18;2.20;;;2.00;;
12385;SDS011;6257;57.634;18.310;2022-09-12T03:14:58;3.03;;;2.20;;
12385;SDS011;6257;57.634;18.310;2022-09-12T03:17:41;2.87;;;2.20;;
12385;SDS011;6257;57.634;18.310;2022-09-12T03:20:21;5.37;;;2.03;;
12385;SDS011;6257;57.634;18.310;2022-09-12T03:23:00;2.43;;;2.00;;
12385;SDS011;6257;57.634;18.310;2022-09-12T03:25:31;2.87;;;2.13;;
12385;SDS011;6257;57.634;18.310;2022-09-12T03:28:01;3.13;;;2.23;;
12385;SDS011;6257;57.634;18.310;2022-09-12T03:30:36;4.57;;;1.80;;
12385;SDS011;6257;57.634;18.310;2022-09-12T03:33:09;2.90;;;2.13;;
12385;SDS011;6257;57.634;18.310;2022-09-12T03:35:36;2.27;;;1.87;;
12385;SDS011;6257;57.634;18.310;2022-09-12T03:38:04;2.30;;;2.10;;
12385;SDS011;6257;57.634;18.310;2022-09-12T03:40:32;4.20;;;1.97;;
12385;SDS011;6257;57.634;18.310;2022-09-12T03:42:59;2.63;;;2.10;;
12385;SDS011;6257;57.634;18.310;2022-09-12T03:45:26;2.10;;;1.90;;
12385;SDS011;6257;57.634;18.310;2022-09-12T03:47:53;3.63;;;2.10;;
12385;SDS011;6257;57.634;18.310;2022-09-12T03:50:23;3.33;;;2.33;;
12385;SDS011;6257;57.634;18.310;2022-09-12T03:52:51;2.83;;;2.23;;
12385;SDS011;6257;57.634;18.310;2022-09-12T03:55:18;2.20;;;2.00;;
12385;SDS011;6257;57.634;18.310;2022-09-12T03:57:45;3.03;;;2.30;;
12385;SDS011;6257;57.634;18.310;2022-09-12T04:00:12;4.40;;;2.30;;
12385;SDS011;6257;57.634;18.310;2022-09-12T04:02:39;4.23;;;2.33;;
12385;SDS011;6257;57.634;18.310;2022-09-12T04:05:06;4.13;;;2.77;;
12385;SDS011;6257;57.634;18.310;2022-09-12T04:07:35;3.57;;;2.40;;
12385;SDS011;6257;57.634;18.310;2022-09-12T04:10:02;4.07;;;2.07;;
12385;SDS011;6257;57.634;18.310;2022-09-12T04:12:30;2.77;;;2.20;;
12385;SDS011;6257;57.634;18.310;2022-09-12T04:14:57;5.00;;;2.73;;
12385;SDS011;6257;57.634;18.310;2022-09-12T04:17:24;5.80;;;2.80;;
12385;SDS011;6257;57.634;18.310;2022-09-12T04:19:51;2.87;;;2.33;;
12385;SDS011;6257;57.634;18.310;2022-09-12T04:22:18;4.37;;;2.30;;
12385;SDS011;6257;57.634;18.310;2022-09-12T04:24:46;4.07;;;2.70;;
12385;SDS011;6257;57.634;18.310;2022-09-12T04:27:13;5.63;;;2.83;;
12385;SDS011;6257;57.634;18.310;2022-09-12T04:29:40;4.57;;;2.70;;
12385;SDS011;6257;57.634;18.310;2022-09-12T04:32:07;6.97;;;2.80;;
12385;SDS011;6257;57.634;18.310;2022-09-12T04:34:34;4.97;;;2.87;;
12385;SDS011;6257;57.634;18.310;2022-09-12T04:37:01;9.10;;;3.10;;
12385;SDS011;6257;57.634;18.310;2022-09-12T04:39:28;5.93;;;3.30;;
12385;SDS011;6257;57.634;18.310;2022-09-12T04:41:57;4.20;;;3.20;;
12385;SDS011;6257;57.634;18.310;2022-09-12T04:44:24;8.77;;;3.23;;
12385;SDS011;6257;57.634;18.310;2022-09-12T04:46:51;6.60;;;3.97;;
12385;SDS011;6257;57.634;18.310;2022-09-12T04:49:18;8.13;;;3.47;;
12385;SDS011;6257;57.634;18.310;2022-09-12T04:51:45;11.10;;;3.30;;
12385;SDS011;6257;57.634;18.310;2022-09-12T04:54:13;8.10;;;3.47;;
12385;SDS011;6257;57.634;18.310;2022-09-12T04:56:42;8.80;;;3.53;;
12385;SDS011;6257;57.634;18.310;2022-09-12T04:59:12;9.07;;;3.43;;
12385;SDS011;6257;57.634;18.310;2022-09-12T05:01:41;7.97;;;2.73;;
12385;SDS011;6257;57.634;18.310;2022-09-12T05:04:08;8.67;;;3.27;;
12385;SDS011;6257;57.634;18.310;2022-09-12T05:06:36;6.83;;;2.93;;
12385;SDS011;6257;57.634;18.310;2022-09-12T05:09:05;5.87;;;3.10;;
12385;SDS011;6257;57.634;18.310;2022-09-12T05:11:36;5.40;;;2.83;;
12385;SDS011;6257;57.634;18.310;2022-09-12T05:14:04;6.90;;;3.00;;
12385;SDS011;6257;57.634;18.310;2022-09-12T05:16:33;8.63;;;3.20;;
12385;SDS011;6257;57.634;18.310;2022-09-12T05:19:00;5.37;;;3.13;;
12385;SDS011;6257;57.634;18.310;2022-09-12T05:21:27;5.83;;;3.10;;
12385;SDS011;6257;57.634;18.310;2022-09-12T05:23:55;5.47;;;3.13;;
12385;SDS011;6257;57.634;18.310;2022-09-12T05:26:23;4.57;;;2.90;;
12385;SDS011;6257;57.634;18.310;2022-09-12T05:28:51;5.30;;;2.80;;
12385;SDS011;6257;57.634;18.310;2022-09-12T05:31:19;4.53;;;3.07;;
12385;SDS011;6257;57.634;18.310;2022-09-12T05:33:49;6.17;;;3.10;;
12385;SDS011;6257;57.634;18.310;2022-09-12T05:36:17;7.63;;;3.73;;
12385;SDS011;6257;57.634;18.310;2022-09-12T05:38:46;9.10;;;3.57;;
12385;SDS011;6257;57.634;18.310;2022-09-12T05:41:14;12.13;;;4.67;;
12385;SDS011;6257;57.634;18.310;2022-09-12T05:43:42;12.83;;;4.80;;
12385;SDS011;6257;57.634;18.310;2022-09-12T05:46:10;14.20;;;4.13;;
12385;SDS011;6257;57.634;18.310;2022-09-12T05:48:39;13.47;;;4.67;;
12385;SDS011;6257;57.634;18.310;2022-09-12T05:51:09;11.90;;;4.70;;
12385;SDS011;6257;57.634;18.310;2022-09-12T05:53:38;8.77;;;4.53;;
12385;SDS011;6257;57.634;18.310;2022-09-12T05:56:07;9.53;;;4.60;;
12385;SDS011;6257;57.634;18.310;2022-09-12T05:58:35;10.47;;;4.30;;
12385;SDS011;6257;57.634;18.310;2022-09-12T06:01:04;10.07;;;4.03;;
12385;SDS011;6257;57.634;18.310;2022-09-12T06:03:32;8.63;;;3.97;;
12385;SDS011;6257;57.634;18.310;2022-09-12T06:06:01;9.60;;;3.70;;
12385;SDS011;6257;57.634;18.310;2022-09-12T06:08:31;8.37;;;3.63;;
12385;SDS011;6257;57.634;18.310;2022-09-12T06:10:59;8.67;;;4.03;;
12385;SDS011;6257;57.634;18.310;2022-09-12T06:13:27;3.07;;;2.40;;
12385;SDS011;6257;57.634;18.310;2022-09-12T06:15:54;5.73;;;2.50;;
12385;SDS011;6257;57.634;18.310;2022-09-12T06:18:21;6.60;;;3.30;;
12385;SDS011;6257;57.634;18.310;2022-09-12T06:20:48;7.00;;;2.43;;
12385;SDS011;6257;57.634;18.310;2022-09-12T06:23:15;5.63;;;2.80;;
12385;SDS011;6257;57.634;18.310;2022-09-12T06:25:47;3.27;;;2.40;;
12385;SDS011;6257;57.634;18.310;2022-09-12T06:28:14;2.20;;;2.00;;
12385;SDS011;6257;57.634;18.310;2022-09-12T06:30:41;4.13;;;2.47;;
12385;SDS011;6257;57.634;18.310;2022-09-12T06:33:08;2.80;;;1.70;;
12385;SDS011;6257;57.634;18.310;2022-09-12T06:35:35;2.30;;;1.57;;
12385;SDS011;6257;57.634;18.310;2022-09-12T06:38:03;2.80;;;1.77;;
12385;SDS011;6257;57.634;18.310;2022-09-12T06:40:31;2.40;;;1.63;;
12385;SDS011;6257;57.634;18.310;2022-09-12T06:42:59;3.00;;;1.93;;
12385;SDS011;6257;57.634;18.310;2022-09-12T06:45:26;3.20;;;1.90;;
12385;SDS011;6257;57.634;18.310;2022-09-12T06:47:53;5.63;;;1.47;;
12385;SDS011;6257;57.634;18.310;2022-09-12T06:50:21;4.27;;;1.70;;
12385;SDS011;6257;57.634;18.310;2022-09-12T06:52:48;1.53;;;1.43;;
12385;SDS011;6257;57.634;18.310;2022-09-12T06:55:16;2.67;;;1.47;;
12385;SDS011;6257;57.634;18.310;2022-09-12T06:57:43;2.00;;;1.53;;
12385;SDS011;6257;57.634;18.310;2022-09-12T07:00:12;1.50;;;1.40;;
12385;SDS011;6257;57.634;18.310;2022-09-12T07:02:39;3.00;;;1.40;;
12385;SDS011;6257;57.634;18.310;2022-09-12T07:05:06;4.20;;;1.60;;
12385;SDS011;6257;57.634;18.310;2022-09-12T07:07:35;4.37;;;1.40;;
12385;SDS011;6257;57.634;18.310;2022-09-12T07:10:02;2.13;;;1.40;;
12385;SDS011;6257;57.634;18.310;2022-09-12T07:12:30;3.13;;;1.43;;
12385;SDS011;6257;57.634;18.310;2022-09-12T07:14:57;2.10;;;1.57;;
12385;SDS011;6257;57.634;18.310;2022-09-12T07:17:26;1.67;;;1.40;;
12385;SDS011;6257;57.634;18.310;2022-09-12T07:19:53;2.93;;;1.40;;
12385;SDS011;6257;57.634;18.310;2022-09-12T07:22:20;3.07;;;1.40;;
12385;SDS011;6257;57.634;18.310;2022-09-12T07:24:47;1.20;;;1.10;;
12385;SDS011;6257;57.634;18.310;2022-09-12T07:27:14;1.83;;;1.67;;
12385;SDS011;6257;57.634;18.310;2022-09-12T07:29:41;2.57;;;1.23;;
12385;SDS011;6257;57.634;18.310;2022-09-12T07:32:10;2.77;;;1.60;;
12385;SDS011;6257;57.634;18.310;2022-09-12T07:34:39;3.20;;;1.40;;
12385;SDS011;6257;57.634;18.310;2022-09-12T07:37:06;1.30;;;1.20;;
12385;SDS011;6257;57.634;18.310;2022-09-12T07:39:33;2.90;;;1.30;;
12385;SDS011;6257;57.634;18.310;2022-09-12T07:42:00;2.73;;;1.50;;
12385;SDS011;6257;57.634;18.310;2022-09-12T07:44:27;2.60;;;1.20;;
12385;SDS011;6257;57.634;18.310;2022-09-12T07:46:54;2.80;;;1.30;;
12385;SDS011;6257;57.634;18.310;2022-09-12T07:49:21;3.40;;;1.30;;
12385;SDS011;6257;57.634;18.310;2022-09-12T07:51:49;3.87;;;1.53;;
12385;SDS011;6257;57.634;18.310;2022-09-12T07:54:17;2.30;;;1.63;;
12385;SDS011;6257;57.634;18.310;2022-09-12T07:56:44;3.17;;;1.77;;
12385;SDS011;6257;57.634;18.310;2022-09-12T07:59:11;4.33;;;1.50;;
12385;SDS011;6257;57.634;18.310;2022-09-12T08:01:38;2.53;;;1.33;;
12385;SDS011;6257;57.634;18.310;2022-09-12T08:04:05;2.83;;;1.60;;
12385;SDS011;6257;57.634;18.310;2022-09-12T08:06:33;2.97;;;1.73;;
12385;SDS011;6257;57.634;18.310;2022-09-12T08:09:03;3.10;;;1.20;;
12385;SDS011;6257;57.634;18.310;2022-09-12T08:11:32;3.30;;;1.40;;
12385;SDS011;6257;57.634;18.310;2022-09-12T08:13:59;3.20;;;1.23;;
12385;SDS011;6257;57.634;18.310;2022-09-12T08:16:28;1.87;;;1.30;;
12385;SDS011;6257;57.634;18.310;2022-09-12T08:18:56;3.37;;;1.30;;
12385;SDS011;6257;57.634;18.310;2022-09-12T08:21:24;4.10;;;1.10;;
12385;SDS011;6257;57.634;18.310;2022-09-12T08:23:52;5.47;;;4.20;;
12385;SDS011;6257;57.634;18.310;2022-09-12T08:26:21;2.70;;;2.47;;
12385;SDS011;6257;57.634;18.310;2022-09-12T08:28:49;1.37;;;1.20;;
12385;SDS011;6257;57.634;18.310;2022-09-12T08:31:18;1.20;;;1.10;;
12385;SDS011;6257;57.634;18.310;2022-09-12T08:33:46;2.33;;;1.13;;
12385;SDS011;6257;57.634;18.310;2022-09-12T08:36:14;1.73;;;1.33;;
12385;SDS011;6257;57.634;18.310;2022-09-12T08:38:43;1.23;;;0.97;;
12385;SDS011;6257;57.634;18.310;2022-09-12T08:41:13;1.43;;;1.03;;
12385;SDS011;6257;57.634;18.310;2022-09-12T08:43:56;2.23;;;1.20;;
12385;SDS011;6257;57.634;18.310;2022-09-12T08:46:44;1.83;;;1.30;;
12385;SDS011;6257;57.634;18.310;2022-09-12T08:49:22;2.03;;;1.23;;
12385;SDS011;6257;57.634;18.310;2022-09-12T08:51:53;2.00;;;1.00;;
12385;SDS011;6257;57.634;18.310;2022-09-12T08:54:24;1.57;;;1.37;;
12385;SDS011;6257;57.634;18.310;2022-09-12T08:56:55;3.83;;;1.13;;
12385;SDS011;6257;57.634;18.310;2022-09-12T08:59:26;1.07;;;0.90;;
12385;SDS011;6257;57.634;18.310;2022-09-12T09:01:56;2.87;;;1.27;;
12385;SDS011;6257;57.634;18.310;2022-09-12T09:04:31;2.13;;;1.00;;
12385;SDS011;6257;57.634;18.310;2022-09-12T09:07:11;1.60;;;1.13;;
12385;SDS011;6257;57.634;18.310;2022-09-12T09:09:59;1.77;;;1.23;;
12385;SDS011;6257;57.634;18.310;2022-09-12T09:12:36;3.47;;;1.30;;
12385;SDS011;6257;57.634;18.310;2022-09-12T09:15:19;1.63;;;1.10;;
12385;SDS011;6257;57.634;18.310;2022-09-12T09:18:08;1.07;;;0.90;;
12385;SDS011;6257;57.634;18.310;2022-09-12T09:20:41;1.90;;;1.27;;
12385;SDS011;6257;57.634;18.310;2022-09-12T09:23:15;1.80;;;1.17;;
12385;SDS011;6257;57.634;18.310;2022-09-12T09:25:49;2.90;;;1.20;;
12385;SDS011;6257;57.634;18.310;2022-09-12T09:28:21;1.20;;;1.10;;
12385;SDS011;6257;57.634;18.310;2022-09-12T09:30:52;1.97;;;1.23;;
12385;SDS011;6257;57.634;18.310;2022-09-12T09:33:20;3.50;;;1.50;;
12385;SDS011;6257;57.634;18.310;2022-09-12T09:35:51;2.90;;;1.00;;
12385;SDS011;6257;57.634;18.310;2022-09-12T09:38:26;1.20;;;1.10;;
12385;SDS011;6257;57.634;18.310;2022-09-12T09:41:08;2.83;;;1.40;;
12385;SDS011;6257;57.634;18.310;2022-09-12T09:43:48;2.40;;;1.43;;
12385;SDS011;6257;57.634;18.310;2022-09-12T09:46:16;1.27;;;1.00;;
12385;SDS011;6257;57.634;18.310;2022-09-12T09:48:44;1.97;;;1.20;;
12385;SDS011;6257;57.634;18.310;2022-09-12T09:51:15;1.67;;;0.93;;
12385;SDS011;6257;57.634;18.310;2022-09-12T09:53:47;1.60;;;1.30;;
12385;SDS011;6257;57.634;18.310;2022-09-12T09:56:20;2.60;;;1.30;;
12385;SDS011;6257;57.634;18.310;2022-09-12T09:58:53;2.13;;;1.10;;
12385;SDS011;6257;57.634;18.310;2022-09-12T10:01:29;1.73;;;1.10;;
12385;SDS011;6257;57.634;18.310;2022-09-12T10:03:57;1.30;;;1.20;;
12385;SDS011;6257;57.634;18.310;2022-09-12T10:06:25;1.20;;;1.00;;
12385;SDS011;6257;57.634;18.310;2022-09-12T10:09:04;1.50;;;1.10;;
12385;SDS011;6257;57.634;18.310;2022-09-12T10:11:33;2.23;;;1.13;;
12385;SDS011;6257;57.634;18.310;2022-09-12T10:14:01;1.67;;;1.23;;
12385;SDS011;6257;57.634;18.310;2022-09-12T10:16:31;3.07;;;1.30;;
12385;SDS011;6257;57.634;18.310;2022-09-12T10:19:00;1.33;;;1.23;;
12385;SDS011;6257;57.634;18.310;2022-09-12T10:21:31;2.03;;;1.30;;
12385;SDS011;6257;57.634;18.310;2022-09-12T10:24:01;1.30;;;1.20;;
12385;SDS011;6257;57.634;18.310;2022-09-12T10:26:32;2.03;;;1.30;;
12385;SDS011;6257;57.634;18.310;2022-09-12T10:29:03;1.93;;;1.10;;
12385;SDS011;6257;57.634;18.310;2022-09-12T10:31:43;1.30;;;1.10;;
12385;SDS011;6257;57.634;18.310;2022-09-12T10:34:20;2.43;;;1.27;;
12385;SDS011;6257;57.634;18.310;2022-09-12T10:36:52;1.47;;;1.37;;
12385;SDS011;6257;57.634;18.310;2022-09-12T10:39:24;2.93;;;1.20;;
12385;SDS011;6257;57.634;18.310;2022-09-12T10:41:51;2.23;;;1.20;;
12385;SDS011;6257;57.634;18.310;2022-09-12T10:44:22;1.63;;;1.20;;
12385;SDS011;6257;57.634;18.310;2022-09-12T10:46:52;1.90;;;1.30;;
12385;SDS011;6257;57.634;18.310;2022-09-12T10:49:24;1.83;;;1.30;;
12385;SDS011;6257;57.634;18.310;2022-09-12T10:51:54;5.03;;;1.53;;
12385;SDS011;6257;57.634;18.310;2022-09-12T10:54:24;1.90;;;1.20;;
12385;SDS011;6257;57.634;18.310;2022-09-12T10:57:12;1.20;;;1.10;;
12385;SDS011;6257;57.634;18.310;2022-09-12T11:00:07;3.97;;;1.40;;
12385;SDS011;6257;57.634;18.310;2022-09-12T11:02:49;1.87;;;1.23;;
12385;SDS011;6257;57.634;18.310;2022-09-12T11:05:21;1.50;;;1.30;;
12385;SDS011;6257;57.634;18.310;2022-09-12T11:08:05;1.67;;;1.13;;
12385;SDS011;6257;57.634;18.310;2022-09-12T11:10:42;5.17;;;1.60;;
12385;SDS011;6257;57.634;18.310;2022-09-12T11:13:18;1.97;;;1.40;;
12385;SDS011;6257;57.634;18.310;2022-09-12T11:15:55;2.37;;;1.40;;
12385;SDS011;6257;57.634;18.310;2022-09-12T11:18:36;2.30;;;1.20;;
12385;SDS011;6257;57.634;18.310;2022-09-12T11:21:19;2.27;;;1.20;;
12385;SDS011;6257;57.634;18.310;2022-09-12T11:29:45;2.83;;;1.37;;
12385;SDS011;6257;57.634;18.310;2022-09-12T11:32:21;3.43;;;1.53;;
12385;SDS011;6257;57.634;18.310;2022-09-12T11:35:12;1.30;;;1.20;;
12385;SDS011;6257;57.634;18.310;2022-09-12T11:37:48;2.40;;;1.10;;
12385;SDS011;6257;57.634;18.310;2022-09-12T11:40:32;3.37;;;1.37;;
12385;SDS011;6257;57.634;18.310;2022-09-12T11:43:06;3.53;;;1.17;;
12385;SDS011;6257;57.634;18.310;2022-09-12T11:45:42;1.93;;;1.40;;
12385;SDS011;6257;57.634;18.310;2022-09-12T11:48:11;1.40;;;1.30;;
12385;SDS011;6257;57.634;18.310;2022-09-12T11:50:45;1.93;;;1.60;;
12385;SDS011;6257;57.634;18.310;2022-09-12T11:53:14;1.80;;;1.60;;
12385;SDS011;6257;57.634;18.310;2022-09-12T11:55:46;2.50;;;1.40;;
12385;SDS011;6257;57.634;18.310;2022-09-12T11:58:20;3.77;;;1.33;;
12385;SDS011;6257;57.634;18.310;2022-09-12T12:00:50;3.07;;;1.33;;
12385;SDS011;6257;57.634;18.310;2022-09-12T12:03:23;1.73;;;1.40;;
12385;SDS011;6257;57.634;18.310;2022-09-12T12:06:00;2.03;;;1.30;;
12385;SDS011;6257;57.634;18.310;2022-09-12T12:08:30;1.63;;;1.40;;
12385;SDS011;6257;57.634;18.310;2022-09-12T12:11:03;2.13;;;1.53;;
12385;SDS011;6257;57.634;18.310;2022-09-12T12:13:32;1.73;;;1.40;;
12385;SDS011;6257;57.634;18.310;2022-09-12T12:16:03;4.90;;;1.50;;
12385;SDS011;6257;57.634;18.310;2022-09-12T12:18:32;2.73;;;1.30;;
12385;SDS011;6257;57.634;18.310;2022-09-12T12:21:18;1.30;;;1.20;;
12385;SDS011;6257;57.634;18.310;2022-09-12T12:24:02;3.23;;;1.23;;
12385;SDS011;6257;57.634;18.310;2022-09-12T12:26:42;1.20;;;1.10;;
12385;SDS011;6257;57.634;18.310;2022-09-12T12:29:34;1.33;;;1.23;;
12385;SDS011;6257;57.634;18.310;2022-09-12T12:32:23;2.23;;;1.50;;
12385;SDS011;6257;57.634;18.310;2022-09-12T12:35:00;1.67;;;1.57;;
12385;SDS011;6257;57.634;18.310;2022-09-12T12:37:56;1.50;;;1.40;;
12385;SDS011;6257;57.634;18.310;2022-09-12T12:40:25;2.67;;;1.43;;
12385;SDS011;6257;57.634;18.310;2022-09-12T12:42:57;3.60;;;1.60;;
12385;SDS011;6257;57.634;18.310;2022-09-12T12:45:58;1.40;;;1.30;;
12385;SDS011;6257;57.634;18.310;2022-09-12T12:48:43;2.13;;;1.20;;
12385;SDS011;6257;57.634;18.310;2022-09-12T12:51:15;3.87;;;1.50;;
12385;SDS011;6257;57.634;18.310;2022-09-12T12:54:03;2.43;;;1.40;;
12385;SDS011;6257;57.634;18.310;2022-09-12T12:56:59;3.23;;;1.30;;
12385;SDS011;6257;57.634;18.310;2022-09-12T12:59:27;3.20;;;1.30;;
12385;SDS011;6257;57.634;18.310;2022-09-12T13:01:55;2.00;;;1.43;;
12385;SDS011;6257;57.634;18.310;2022-09-12T13:04:26;1.63;;;1.23;;
12385;SDS011;6257;57.634;18.310;2022-09-12T13:06:58;2.57;;;1.40;;
12385;SDS011;6257;57.634;18.310;2022-09-12T13:09:30;3.07;;;1.10;;
12385;SDS011;6257;57.634;18.310;2022-09-12T13:12:00;2.03;;;1.47;;
12385;SDS011;6257;57.634;18.310;2022-09-12T13:14:33;1.63;;;1.37;;
12385;SDS011;6257;57.634;18.310;2022-09-12T13:17:17;3.10;;;1.53;;
12385;SDS011;6257;57.634;18.310;2022-09-12T13:19:51;5.60;;;1.50;;
12385;SDS011;6257;57.634;18.310;2022-09-12T13:22:32;3.37;;;1.43;;
12385;SDS011;6257;57.634;18.310;2022-09-12T13:28:01;2.40;;;1.67;;
12385;SDS011;6257;57.634;18.310;2022-09-12T13:30:30;3.90;;;1.37;;
12385;SDS011;6257;57.634;18.310;2022-09-12T13:33:03;2.17;;;1.50;;
12385;SDS011;6257;57.634;18.310;2022-09-12T13:35:42;3.93;;;1.50;;
12385;SDS011;6257;57.634;18.310;2022-09-12T13:38:21;1.70;;;1.47;;
12385;SDS011;6257;57.634;18.310;2022-09-12T13:41:02;3.33;;;1.40;;
12385;SDS011;6257;57.634;18.310;2022-09-12T13:43:42;2.47;;;1.40;;
12385;SDS011;6257;57.634;18.310;2022-09-12T13:46:12;4.13;;;1.50;;
12385;SDS011;6257;57.634;18.310;2022-09-12T13:48:43;2.60;;;1.60;;
12385;SDS011;6257;57.634;18.310;2022-09-12T13:51:17;5.53;;;2.00;;
12385;SDS011;6257;57.634;18.310;2022-09-12T13:53:48;1.67;;;1.50;;
12385;SDS011;6257;57.634;18.310;2022-09-12T13:56:21;3.20;;;1.67;;
12385;SDS011;6257;57.634;18.310;2022-09-12T13:58:52;2.17;;;1.60;;
12385;SDS011;6257;57.634;18.310;2022-09-12T14:01:21;4.33;;;1.90;;
12385;SDS011;6257;57.634;18.310;2022-09-12T14:03:50;1.60;;;1.50;;
12385;SDS011;6257;57.634;18.310;2022-09-12T14:06:41;1.97;;;1.60;;
12385;SDS011;6257;57.634;18.310;2022-09-12T14:09:12;2.43;;;1.40;;
12385;SDS011;6257;57.634;18.310;2022-09-12T14:11:41;2.27;;;1.40;;
12385;SDS011;6257;57.634;18.310;2022-09-12T14:14:17;3.93;;;1.40;;
12385;SDS011;6257;57.634;18.310;2022-09-12T14:16:55;1.80;;;1.50;;
12385;SDS011;6257;57.634;18.310;2022-09-12T14:19:23;3.30;;;2.07;;
12385;SDS011;6257;57.634;18.310;2022-09-12T14:21:51;2.83;;;1.40;;
12385;SDS011;6257;57.634;18.310;2022-09-12T14:24:19;2.30;;;1.60;;
12385;SDS011;6257;57.634;18.310;2022-09-12T14:26:50;1.80;;;1.60;;
12385;SDS011;6257;57.634;18.310;2022-09-12T14:29:20;2.13;;;1.30;;
12385;SDS011;6257;57.634;18.310;2022-09-12T14:31:58;2.03;;;1.60;;
12385;SDS011;6257;57.634;18.310;2022-09-12T14:34:27;4.17;;;1.73;;
12385;SDS011;6257;57.634;18.310;2022-09-12T14:36:55;2.50;;;1.60;;
12385;SDS011;6257;57.634;18.310;2022-09-12T14:39:25;1.53;;;1.40;;
12385;SDS011;6257;57.634;18.310;2022-09-12T14:42:03;2.80;;;1.40;;
12385;SDS011;6257;57.634;18.310;2022-09-12T14:44:32;2.70;;;1.40;;
12385;SDS011;6257;57.634;18.310;2022-09-12T14:47:09;2.17;;;1.40;;
12385;SDS011;6257;57.634;18.310;2022-09-12T14:49:38;2.00;;;1.43;;
12385;SDS011;6257;57.634;18.310;2022-09-12T14:52:06;4.10;;;1.53;;
12385;SDS011;6257;57.634;18.310;2022-09-12T14:54:54;1.73;;;1.40;;
12385;SDS011;6257;57.634;18.310;2022-09-12T14:57:34;1.67;;;1.43;;
12385;SDS011;6257;57.634;18.310;2022-09-12T15:00:15;2.13;;;1.60;;
12385;SDS011;6257;57.634;18.310;2022-09-12T15:02:45;1.97;;;1.30;;
12385;SDS011;6257;57.634;18.310;2022-09-12T15:05:14;1.90;;;1.60;;
12385;SDS011;6257;57.634;18.310;2022-09-12T15:07:53;6.47;;;1.70;;
12385;SDS011;6257;57.634;18.310;2022-09-12T15:10:25;2.33;;;1.60;;
12385;SDS011;6257;57.634;18.310;2022-09-12T15:13:13;2.37;;;1.40;;
12385;SDS011;6257;57.634;18.310;2022-09-12T15:15:43;3.70;;;1.50;;
12385;SDS011;6257;57.634;18.310;2022-09-12T15:18:12;3.63;;;1.50;;
12385;SDS011;6257;57.634;18.310;2022-09-12T15:20:40;2.47;;;1.67;;
12385;SDS011;6257;57.634;18.310;2022-09-12T15:23:11;2.83;;;1.60;;
12385;SDS011;6257;57.634;18.310;2022-09-12T15:25:43;4.57;;;1.87;;
12385;SDS011;6257;57.634;18.310;2022-09-12T15:28:14;2.60;;;1.77;;
12385;SDS011;6257;57.634;18.310;2022-09-12T15:30:43;3.67;;;1.77;;
12385;SDS011;6257;57.634;18.310;2022-09-12T15:33:11;5.33;;;1.70;;
12385;SDS011;6257;57.634;18.310;2022-09-12T15:35:38;2.30;;;1.77;;